createdAt,value
2023-04-18T00:02:04.204Z,47.44
2023-04-18T00:04:34.015Z,47.40
2023-04-18T00:07:02.610Z,47.07
2023-04-18T00:09:30.903Z,47.23
2023-04-18T00:11:59.135Z,46.73
2023-04-18T00:14:28.901Z,47.88
2023-04-18T00:16:57.219Z,47.05
2023-04-18T00:19:25.538Z,46.80
2023-04-18T00:21:53.793Z,48.75
2023-04-18T00:24:22.206Z,48.51
2023-04-18T00:26:50.613Z,48.49
2023-04-18T00:29:18.881Z,47.33
2023-04-18T00:31:47.109Z,47.66
2023-04-18T00:34:15.613Z,47.91
2023-04-18T00:36:44.137Z,47.35
2023-04-18T00:39:12.369Z,47.28
2023-04-18T00:41:40.585Z,47.05
2023-04-18T00:44:08.817Z,48.11
2023-04-18T00:46:37.926Z,47.59
2023-04-18T00:49:06.392Z,47.71
2023-04-18T00:51:35.578Z,47.77
2023-04-18T00:54:06.727Z,46.84
2023-04-18T00:56:36.149Z,48.10
2023-04-18T00:59:05.988Z,47.38
2023-04-18T01:01:34.600Z,48.60
2023-04-18T01:04:03.188Z,47.85
2023-04-18T01:06:31.948Z,48.81
2023-04-18T01:11:30.369Z,47.65
2023-04-18T01:14:07.504Z,47.98
2023-04-18T01:16:37.300Z,48.00
2023-04-18T01:19:05.998Z,48.22
2023-04-18T01:21:37.203Z,47.64
2023-04-18T01:24:16.850Z,47.40
2023-04-18T01:26:49.257Z,47.83
2023-04-18T01:29:17.662Z,49.52
2023-04-18T01:31:46.202Z,48.29
2023-04-18T01:34:18.087Z,48.29
2023-04-18T01:36:46.764Z,47.93
2023-04-18T01:39:15.406Z,48.46
2023-04-18T01:41:43.772Z,47.82
2023-04-18T01:44:12.106Z,48.66
2023-04-18T01:46:40.941Z,48.11
2023-04-18T01:49:09.874Z,49.57
2023-04-18T01:51:38.959Z,48.85
2023-04-18T01:54:07.248Z,50.35
2023-04-18T01:56:35.616Z,49.87
2023-04-18T01:59:03.925Z,49.69
2023-04-18T02:01:32.220Z,49.69
2023-04-18T02:04:00.835Z,49.20
2023-04-18T02:06:29.190Z,50.19
2023-04-18T02:08:57.484Z,50.89
2023-04-18T02:11:26.640Z,49.89
2023-04-18T02:13:55.019Z,50.15
2023-04-18T02:16:23.372Z,49.65
2023-04-18T02:18:52.468Z,49.81
2023-04-18T02:21:21.774Z,49.66
2023-04-18T02:23:50.955Z,50.23
2023-04-18T02:26:19.642Z,49.06
2023-04-18T02:28:49.455Z,49.59
2023-04-18T02:31:17.988Z,48.78
2023-04-18T02:33:48.033Z,49.81
2023-04-18T02:36:16.466Z,49.63
2023-04-18T02:38:45.476Z,50.15
2023-04-18T02:41:17.376Z,50.35
2023-04-18T02:43:45.956Z,49.56
2023-04-18T02:46:17.406Z,49.39
2023-04-18T02:48:49.004Z,49.98
2023-04-18T02:51:19.870Z,49.71
2023-04-18T02:53:48.401Z,50.07
2023-04-18T02:56:17.183Z,50.04
2023-04-18T02:59:04.131Z,50.96
2023-04-18T03:01:52.733Z,50.46
2023-04-18T03:04:23.380Z,50.08
2023-04-18T03:07:01.950Z,50.29
2023-04-18T03:09:33.825Z,49.47
2023-04-18T03:12:07.322Z,49.74
2023-04-18T03:14:38.276Z,50.41
2023-04-18T03:17:07.554Z,49.92
2023-04-18T03:19:41.578Z,49.49
2023-04-18T03:22:14.267Z,50.34
2023-04-18T03:24:50.189Z,49.95
2023-04-18T03:27:19.501Z,50.99
2023-04-18T03:29:48.781Z,51.26
2023-04-18T03:32:18.304Z,52.62
2023-04-18T03:34:46.590Z,50.74
2023-04-18T03:37:14.959Z,51.41
2023-04-18T03:39:49.056Z,50.78
2023-04-18T03:42:17.406Z,50.49
2023-04-18T03:44:45.712Z,50.93
2023-04-18T03:47:14.845Z,52.40
2023-04-18T03:49:46.056Z,52.48
2023-04-18T03:52:15.968Z,52.64
2023-04-18T03:54:44.373Z,53.07
2023-04-18T03:57:13.955Z,52.72
2023-04-18T03:59:42.985Z,51.53
2023-04-18T04:02:11.742Z,53.62
2023-04-18T04:04:40.373Z,54.43
2023-04-18T04:07:08.774Z,52.76
2023-04-18T04:09:37.923Z,54.06
2023-04-18T04:12:07.591Z,54.18
2023-04-18T04:14:36.453Z,54.15
2023-04-18T04:17:05.477Z,55.39
2023-04-18T04:19:34.621Z,55.71
2023-04-18T04:22:10.521Z,56.73
2023-04-18T04:24:39.522Z,57.05
2023-04-18T04:27:08.486Z,56.36
2023-04-18T04:29:39.128Z,56.54
2023-04-18T04:32:08.492Z,56.00
2023-04-18T04:34:41.257Z,55.06
2023-04-18T04:37:14.043Z,54.61
2023-04-18T04:39:53.467Z,57.36
2023-04-18T04:42:54.204Z,56.00
2023-04-18T04:45:33.141Z,56.67
2023-04-18T04:48:01.896Z,57.98
2023-04-18T04:50:30.440Z,57.60
2023-04-18T04:52:58.674Z,57.97
2023-04-18T04:55:27.530Z,59.05
2023-04-18T04:57:56.011Z,59.41
2023-04-18T05:00:38.337Z,59.25
2023-04-18T05:03:08.485Z,59.82
2023-04-18T05:05:37.585Z,59.22
2023-04-18T05:08:06.124Z,59.05
2023-04-18T05:10:37.000Z,58.14
2023-04-18T05:13:05.830Z,58.18
2023-04-18T05:15:34.225Z,59.41
2023-04-18T05:18:02.521Z,60.02
2023-04-18T05:20:31.116Z,59.69
2023-04-18T05:23:00.164Z,60.19
2023-04-18T05:25:29.803Z,60.15
2023-04-18T05:28:00.197Z,60.42
2023-04-18T05:30:28.564Z,60.34
2023-04-18T05:32:57.017Z,58.86
2023-04-18T05:35:25.424Z,58.66
2023-04-18T05:37:53.707Z,58.80
2023-04-18T05:40:22.002Z,59.49
2023-04-18T05:42:50.364Z,57.82
2023-04-18T05:45:18.786Z,59.17
2023-04-18T05:47:47.149Z,60.56
2023-04-18T05:50:15.734Z,60.29
2023-04-18T05:52:44.041Z,60.43
2023-04-18T05:55:12.607Z,60.16
2023-04-18T05:57:41.489Z,60.71
2023-04-18T06:00:11.810Z,60.85
2023-04-18T06:02:42.784Z,61.48
2023-04-18T06:05:12.550Z,60.47
2023-04-18T06:07:41.048Z,61.67
2023-04-18T06:10:13.223Z,60.64
2023-04-18T06:12:42.245Z,59.82
2023-04-18T06:15:11.595Z,59.76
2023-04-18T06:17:40.044Z,59.95
2023-04-18T06:20:09.647Z,60.09
2023-04-18T06:22:38.170Z,60.16
2023-04-18T06:25:08.721Z,59.70
2023-04-18T06:27:37.900Z,60.41
2023-04-18T06:30:07.882Z,60.52
2023-04-18T06:32:36.418Z,58.74
2023-04-18T06:35:05.092Z,58.74
2023-04-18T06:37:33.680Z,57.82
2023-04-18T06:40:01.929Z,57.22
2023-04-18T06:42:30.131Z,57.54
2023-04-18T06:44:58.411Z,56.74
2023-04-18T06:47:26.980Z,56.88
2023-04-18T06:49:56.483Z,57.18
2023-04-18T06:52:26.171Z,56.40
2023-04-18T06:54:54.686Z,57.26
2023-04-18T06:57:23.199Z,56.71
2023-04-18T06:59:51.555Z,57.28
2023-04-18T07:02:22.862Z,56.90
2023-04-18T07:04:51.727Z,55.80
2023-04-18T07:07:20.437Z,57.01
2023-04-18T07:09:49.964Z,57.52
2023-04-18T07:12:19.447Z,57.28
2023-04-18T07:14:47.733Z,56.46
2023-04-18T07:17:16.234Z,56.71
2023-04-18T07:19:44.712Z,54.96
2023-04-18T07:22:13.272Z,55.59
2023-04-18T07:24:42.113Z,55.58
2023-04-18T07:27:10.387Z,55.64
2023-04-18T07:29:38.685Z,55.44
2023-04-18T07:32:08.544Z,55.54
2023-04-18T07:34:37.333Z,55.17
2023-04-18T07:37:07.453Z,54.86
2023-04-18T07:39:36.162Z,54.82
2023-04-18T07:42:04.809Z,55.18
2023-04-18T07:44:35.151Z,55.27
2023-04-18T07:47:03.951Z,54.90
2023-04-18T07:49:32.319Z,54.70
2023-04-18T07:52:00.619Z,55.00
2023-04-18T07:54:28.901Z,54.19
2023-04-18T07:56:57.135Z,54.48
2023-04-18T07:59:25.520Z,54.47
2023-04-18T08:01:53.858Z,54.04
2023-04-18T08:04:22.382Z,53.73
2023-04-18T08:06:50.855Z,53.33
2023-04-18T08:09:20.609Z,52.69
2023-04-18T08:11:49.333Z,52.61
2023-04-18T08:14:17.663Z,52.15
2023-04-18T08:16:46.281Z,51.60
2023-04-18T08:19:14.810Z,51.23
2023-04-18T08:21:43.155Z,50.65
2023-04-18T08:24:11.423Z,50.52
2023-04-18T08:26:39.868Z,50.34
2023-04-18T08:29:08.544Z,50.50
2023-04-18T08:31:36.810Z,49.98
2023-04-18T08:34:05.363Z,50.03
2023-04-18T08:36:34.614Z,49.56
2023-04-18T08:39:03.226Z,49.33
2023-04-18T08:41:39.980Z,49.07
2023-04-18T08:44:08.124Z,48.43
2023-04-18T08:46:37.254Z,48.33
2023-04-18T08:49:06.155Z,48.19
2023-04-18T08:51:34.702Z,47.97
2023-04-18T08:54:06.259Z,48.07
2023-04-18T08:56:37.360Z,48.43
2023-04-18T08:59:05.655Z,48.18
2023-04-18T09:02:01.394Z,47.93
2023-04-18T09:04:38.604Z,48.04
2023-04-18T09:07:10.267Z,47.80
2023-04-18T09:09:57.175Z,47.96
2023-04-18T09:12:28.073Z,47.75
2023-04-18T09:15:10.276Z,47.53
2023-04-18T09:17:46.022Z,47.04
2023-04-18T09:20:26.302Z,46.68
2023-04-18T09:22:58.177Z,46.07
2023-04-18T09:25:39.877Z,45.98
2023-04-18T09:28:30.073Z,45.04
2023-04-18T09:31:15.162Z,44.57
2023-04-18T09:33:54.502Z,44.88
2023-04-18T09:36:27.945Z,44.03
2023-04-18T09:38:57.266Z,43.92
2023-04-18T09:41:25.829Z,43.81
2023-04-18T09:44:15.730Z,44.22
2023-04-18T09:46:47.428Z,44.14
2023-04-18T09:49:17.662Z,44.18
2023-04-18T09:51:46.942Z,44.61
2023-04-18T09:54:20.628Z,44.30
2023-04-18T09:56:50.832Z,44.45
2023-04-18T09:59:40.619Z,45.27
2023-04-18T10:02:20.904Z,45.32
2023-04-18T10:04:54.493Z,45.66
2023-04-18T10:07:25.081Z,45.31
2023-04-18T10:09:53.656Z,45.11
2023-04-18T10:12:21.981Z,45.04
2023-04-18T10:14:50.431Z,44.56
2023-04-18T10:17:20.346Z,43.95
2023-04-18T10:20:07.075Z,43.79
2023-04-18T10:22:35.807Z,43.37
2023-04-18T10:27:57.959Z,43.04
2023-04-18T10:30:41.588Z,42.96
2023-04-18T10:33:42.416Z,42.72
2023-04-18T10:36:11.489Z,43.08
2023-04-18T10:38:46.970Z,42.55
2023-04-18T10:41:26.316Z,41.77
2023-04-18T10:44:09.653Z,41.27
2023-04-18T10:47:08.870Z,40.54
2023-04-18T10:49:40.252Z,40.31
2023-04-18T10:52:08.821Z,40.57
2023-04-18T10:54:56.074Z,39.78
2023-04-18T10:57:26.410Z,38.41
2023-04-18T10:59:55.081Z,37.07
2023-04-18T11:02:33.303Z,36.39
2023-04-18T11:05:06.694Z,35.86
2023-04-18T11:07:46.246Z,36.75
2023-04-18T11:10:22.708Z,36.72
2023-04-18T11:12:51.379Z,36.94
2023-04-18T11:15:22.927Z,36.45
2023-04-18T11:18:02.754Z,36.86
2023-04-18T11:20:49.590Z,37.36
2023-04-18T11:23:22.789Z,37.28
2023-04-18T11:25:53.701Z,37.27
2023-04-18T11:28:24.783Z,34.64
2023-04-18T11:30:58.842Z,33.35
2023-04-18T11:33:29.366Z,33.88
2023-04-18T11:36:00.970Z,33.20
2023-04-18T11:38:30.867Z,33.26
2023-04-18T11:41:00.358Z,32.93
2023-04-18T11:43:28.915Z,32.33
2023-04-18T11:46:00.300Z,32.42
2023-04-18T11:48:43.116Z,32.88
2023-04-18T11:51:39.818Z,33.13
2023-04-18T11:54:42.690Z,31.82
2023-04-18T11:57:27.929Z,32.54
2023-04-18T12:00:01.508Z,32.25
2023-04-18T12:02:44.872Z,31.29
2023-04-18T12:05:27.133Z,30.02
2023-04-18T12:07:55.921Z,28.95
2023-04-18T12:10:29.827Z,26.44
2023-04-18T12:12:59.734Z,27.18
2023-04-18T12:15:29.538Z,26.62
2023-04-18T12:18:04.792Z,28.48
2023-04-18T12:20:50.512Z,27.58
2023-04-18T12:23:38.886Z,27.28
2023-04-18T12:26:20.978Z,26.95
2023-04-18T12:28:52.804Z,27.61
2023-04-18T12:31:22.264Z,25.11
2023-04-18T12:33:50.996Z,24.98
2023-04-18T12:36:22.049Z,24.29
2023-04-18T12:38:51.262Z,23.43
2023-04-18T12:41:19.150Z,23.08
2023-04-18T12:43:47.497Z,22.13
2023-04-18T12:46:15.431Z,23.74
2023-04-18T12:48:43.822Z,23.83
2023-04-18T12:51:12.011Z,23.51
2023-04-18T12:53:40.538Z,22.25
2023-04-18T12:56:08.415Z,22.25
2023-04-18T12:58:37.983Z,21.86
2023-04-18T13:01:07.695Z,21.18
2023-04-18T13:03:37.109Z,21.18
2023-04-18T13:06:06.014Z,21.18
2023-04-18T13:08:34.883Z,19.84
2023-04-18T13:11:03.102Z,19.30
2023-04-18T13:13:33.400Z,19.58
2023-04-18T13:16:02.725Z,19.66
2023-04-18T13:18:31.091Z,20.08
2023-04-18T13:20:59.317Z,20.58
2023-04-18T13:23:27.525Z,20.25
2023-04-18T13:25:55.809Z,19.31
2023-04-18T13:28:24.041Z,18.66
2023-04-18T13:30:52.241Z,19.50
2023-04-18T13:33:20.616Z,20.16
2023-04-18T13:35:49.695Z,20.92
2023-04-18T13:38:18.041Z,21.96
2023-04-18T13:40:46.252Z,22.40
2023-04-18T13:43:15.366Z,22.71
2023-04-18T13:45:43.637Z,23.38
2023-04-18T13:48:12.855Z,24.35
2023-04-18T13:50:42.618Z,23.41
2023-04-18T13:53:10.956Z,23.26
2023-04-18T13:55:39.166Z,22.38
2023-04-18T13:58:09.836Z,21.43
2023-04-18T14:00:38.531Z,22.85
2023-04-18T14:03:08.299Z,23.61
2023-04-18T14:05:36.730Z,24.72
2023-04-18T14:08:05.300Z,25.50
2023-04-18T14:10:33.597Z,25.91
2023-04-18T14:13:01.948Z,25.44
2023-04-18T14:15:30.634Z,25.06
2023-04-18T14:17:59.394Z,23.67
2023-04-18T14:20:34.132Z,22.54
2023-04-18T14:23:02.561Z,23.53
2023-04-18T14:25:31.001Z,24.82
2023-04-18T14:28:11.878Z,24.69
2023-04-18T14:30:40.708Z,25.32
2023-04-18T14:33:10.383Z,24.98
2023-04-18T14:35:38.566Z,23.66
2023-04-18T14:38:06.508Z,25.57
2023-04-18T14:40:34.899Z,23.61
2023-04-18T14:43:03.328Z,23.17
2023-04-18T14:45:34.444Z,22.14
2023-04-18T14:48:02.997Z,22.13
2023-04-18T14:50:31.731Z,21.53
2023-04-18T14:53:00.136Z,22.21
2023-04-18T14:55:28.091Z,21.30
2023-04-18T14:57:56.720Z,21.30
2023-04-18T15:00:25.107Z,20.60
2023-04-18T15:02:53.952Z,20.04
2023-04-18T15:05:23.893Z,20.38
2023-04-18T15:07:52.304Z,20.45
2023-04-18T15:10:22.312Z,19.99
2023-04-18T15:12:51.331Z,19.59
2023-04-18T15:15:19.860Z,20.31
2023-04-18T15:17:48.242Z,19.63
2023-04-18T15:20:16.488Z,20.01
2023-04-18T15:22:44.988Z,19.26
2023-04-18T15:25:16.439Z,19.06
2023-04-18T15:27:44.723Z,19.72
2023-04-18T15:30:13.618Z,19.39
2023-04-18T15:32:42.286Z,19.32
2023-04-18T15:35:12.194Z,18.93
2023-04-18T15:37:40.497Z,20.51
2023-04-18T15:40:11.177Z,19.92
2023-04-18T15:42:39.912Z,20.16
2023-04-18T15:45:08.550Z,19.85
2023-04-18T15:47:37.016Z,20.30
2023-04-18T15:50:07.104Z,20.47
2023-04-18T15:52:36.135Z,20.19
2023-04-18T15:55:05.291Z,19.60
2023-04-18T15:57:33.725Z,20.22
2023-04-18T16:00:01.733Z,19.96
2023-04-18T16:02:30.149Z,20.09
2023-04-18T16:04:58.453Z,20.02
2023-04-18T16:07:26.652Z,20.47
2023-04-18T16:09:55.029Z,20.11
2023-04-18T16:12:23.285Z,20.28
2023-04-18T16:14:51.570Z,21.01
2023-04-18T16:17:19.900Z,20.17
2023-04-18T16:19:48.128Z,20.17
2023-04-18T16:22:16.380Z,20.86
2023-04-18T16:24:44.642Z,20.88
2023-04-18T16:27:12.840Z,20.83
2023-04-18T16:29:41.079Z,20.95
2023-04-18T16:32:09.300Z,20.94
2023-04-18T16:34:37.486Z,21.03
2023-04-18T16:37:05.832Z,20.94
2023-04-18T16:39:34.383Z,21.34
2023-04-18T16:42:03.768Z,21.38
2023-04-18T16:44:33.365Z,21.37
2023-04-18T16:47:01.981Z,21.62
2023-04-18T16:49:30.526Z,22.13
2023-04-18T16:51:59.110Z,22.50
2023-04-18T16:54:27.318Z,22.44
2023-04-18T16:56:55.606Z,22.43
2023-04-18T16:59:24.113Z,22.23
2023-04-18T17:01:52.756Z,22.28
2023-04-18T17:04:21.407Z,22.76
2023-04-18T17:06:52.086Z,22.96
2023-04-18T17:09:20.472Z,23.25
2023-04-18T17:11:48.832Z,23.39
2023-04-18T17:14:18.231Z,23.38
2023-04-18T17:16:46.570Z,23.86
2023-04-18T17:19:15.274Z,24.02
2023-04-18T17:21:44.238Z,24.05
2023-04-18T17:24:12.489Z,24.10
2023-04-18T17:26:40.972Z,24.74
2023-04-18T17:29:09.203Z,24.56
2023-04-18T17:31:37.858Z,24.96
2023-04-18T17:34:06.269Z,24.91
2023-04-18T17:36:34.555Z,24.87
2023-04-18T17:39:06.334Z,25.41
2023-04-18T17:41:38.531Z,25.70
2023-04-18T17:44:08.122Z,25.58
2023-04-18T17:46:36.822Z,26.29
2023-04-18T17:49:05.025Z,26.61
2023-04-18T17:51:33.746Z,26.84
2023-04-18T17:54:02.134Z,27.16
2023-04-18T17:56:31.440Z,27.22
2023-04-18T17:58:59.814Z,27.92
2023-04-18T18:01:30.278Z,28.06
2023-04-18T18:03:58.873Z,28.80
2023-04-18T18:06:27.827Z,29.41
2023-04-18T18:08:56.046Z,29.71
2023-04-18T18:11:24.696Z,30.34
2023-04-18T18:13:54.724Z,30.55
2023-04-18T18:16:24.644Z,31.12
2023-04-18T18:18:53.075Z,31.49
2023-04-18T18:21:22.656Z,31.54
2023-04-18T18:23:51.268Z,31.82
2023-04-18T18:26:19.566Z,32.07
2023-04-18T18:28:47.935Z,31.87
2023-04-18T18:31:17.509Z,32.66
2023-04-18T18:33:45.962Z,32.38
2023-04-18T18:36:14.163Z,32.47
2023-04-18T18:38:42.540Z,32.56
2023-04-18T18:41:10.787Z,32.58
2023-04-18T18:43:39.297Z,32.57
2023-04-18T18:46:07.991Z,34.51
2023-04-18T18:48:38.223Z,33.24
2023-04-18T18:51:06.720Z,33.12
2023-04-18T18:53:35.288Z,33.32
2023-04-18T18:56:03.879Z,33.84
2023-04-18T18:58:32.125Z,33.45
2023-04-18T19:01:02.425Z,34.46
2023-04-18T19:03:30.938Z,33.27
2023-04-18T19:05:59.390Z,33.10
2023-04-18T19:08:27.713Z,34.10
2023-04-18T19:10:56.078Z,34.43
2023-04-18T19:13:24.466Z,34.03
2023-04-18T19:15:53.038Z,34.00
2023-04-18T19:18:21.328Z,34.16
2023-04-18T19:20:50.491Z,36.63
2023-04-18T19:23:19.364Z,38.56
2023-04-18T19:25:47.742Z,37.93
2023-04-18T19:28:18.219Z,38.37
2023-04-18T19:30:48.921Z,39.75
2023-04-18T19:33:17.492Z,37.96
2023-04-18T19:35:45.684Z,39.63
2023-04-18T19:38:13.926Z,40.96
2023-04-18T19:40:42.362Z,40.44
2023-04-18T19:43:10.844Z,42.05
2023-04-18T19:45:40.443Z,42.65
2023-04-18T19:48:09.831Z,42.22
2023-04-18T19:50:42.368Z,44.60
2023-04-18T19:53:10.916Z,44.17
2023-04-18T19:55:39.207Z,43.70
2023-04-18T19:58:07.548Z,44.82
2023-04-18T20:00:35.843Z,42.89
2023-04-18T20:03:04.679Z,42.69
2023-04-18T20:05:33.185Z,42.63
2023-04-18T20:08:01.511Z,43.56
2023-04-18T20:10:29.808Z,42.06
2023-04-18T20:12:58.089Z,44.92
2023-04-18T20:15:26.298Z,42.08
2023-04-18T20:17:54.554Z,43.65
2023-04-18T20:20:23.221Z,43.01
2023-04-18T20:22:53.064Z,42.38
2023-04-18T20:25:22.027Z,41.08
2023-04-18T20:27:50.350Z,41.23
2023-04-18T20:30:18.620Z,43.60
2023-04-18T20:32:47.036Z,45.26
2023-04-18T20:35:15.431Z,45.29
2023-04-18T20:37:44.605Z,47.31
2023-04-18T20:40:12.940Z,46.08
2023-04-18T20:42:41.283Z,46.75
2023-04-18T20:45:11.108Z,45.72
2023-04-18T20:47:43.685Z,46.62
2023-04-18T20:50:13.986Z,48.29
2023-04-18T20:52:42.907Z,47.11
2023-04-18T20:55:11.644Z,47.71
2023-04-18T20:57:40.069Z,48.94
2023-04-18T21:00:10.603Z,49.01
2023-04-18T21:02:45.038Z,49.94
2023-04-18T21:05:13.515Z,51.03
2023-04-18T21:07:44.074Z,51.16
2023-04-18T21:10:15.017Z,47.71
2023-04-18T21:12:43.438Z,49.25
2023-04-18T21:15:12.396Z,50.84
2023-04-18T21:17:40.730Z,51.86
2023-04-18T21:20:09.554Z,50.47
2023-04-18T21:22:37.836Z,51.19
2023-04-18T21:25:07.380Z,51.00
2023-04-18T21:27:35.843Z,49.84
2023-04-18T21:30:05.151Z,48.58
2023-04-18T21:32:33.552Z,48.31
2023-04-18T21:35:02.444Z,50.84
2023-04-18T21:37:31.109Z,50.09
2023-04-18T21:40:00.458Z,50.35
2023-04-18T21:42:28.822Z,51.20
2023-04-18T21:44:58.495Z,51.58
2023-04-18T21:47:26.729Z,49.52
2023-04-18T21:49:55.713Z,49.90
2023-04-18T21:52:24.216Z,49.37
2023-04-18T21:54:53.377Z,49.53
2023-04-18T21:57:23.299Z,48.86
2023-04-18T21:59:51.484Z,49.36
2023-04-18T22:02:19.942Z,49.81
2023-04-18T22:04:48.331Z,49.61
2023-04-18T22:07:18.753Z,50.67
2023-04-18T22:09:47.419Z,50.18
2023-04-18T22:12:15.669Z,48.03
2023-04-18T22:14:48.149Z,49.63
2023-04-18T22:17:16.536Z,49.00
2023-04-18T22:19:44.952Z,47.62
2023-04-18T22:22:13.167Z,48.28
2023-04-18T22:24:41.350Z,48.33
2023-04-18T22:27:09.684Z,47.52
2023-04-18T22:29:38.086Z,48.51
2023-04-18T22:32:06.616Z,48.83
2023-04-18T22:34:34.819Z,48.59
2023-04-18T22:37:03.038Z,49.70
2023-04-18T22:39:31.601Z,50.61
2023-04-18T22:41:59.818Z,50.57
2023-04-18T22:44:28.329Z,49.72
2023-04-18T22:46:56.667Z,50.32
2023-04-18T22:49:24.853Z,49.31
2023-04-18T22:51:54.307Z,49.69
2023-04-18T22:54:22.872Z,50.88
2023-04-18T22:56:51.175Z,49.87
2023-04-18T22:59:19.798Z,50.12
2023-04-18T23:01:48.306Z,50.62
2023-04-18T23:04:16.957Z,49.52
2023-04-18T23:06:45.388Z,49.78
2023-04-18T23:09:15.884Z,50.97
2023-04-18T23:11:44.149Z,49.66
2023-04-18T23:14:12.535Z,50.15
2023-04-18T23:16:43.276Z,50.04
2023-04-18T23:19:12.051Z,49.32
2023-04-18T23:21:40.421Z,49.97
2023-04-18T23:24:08.818Z,50.42
2023-04-18T23:26:37.555Z,50.37
2023-04-18T23:29:06.059Z,49.63
2023-04-18T23:31:34.614Z,50.54
2023-04-18T23:34:03.165Z,51.47
2023-04-18T23:36:32.241Z,50.99
2023-04-18T23:39:00.485Z,51.28
2023-04-18T23:41:28.923Z,50.77
2023-04-18T23:43:57.319Z,50.57
2023-04-18T23:46:25.891Z,51.10
2023-04-18T23:48:54.768Z,51.40
2023-04-18T23:51:23.036Z,51.65
2023-04-18T23:53:51.556Z,51.51
2023-04-18T23:56:19.858Z,50.78
2023-04-18T23:58:48.079Z,51.96
